Time;durP1;ratioP1;P1;durP2;ratioP2;P2;SDS_P1;SDS_P2;PMS_P1;PMS_P2;Temp;Humidity;BMP_temperature;BMP_pressure;BME280_temperature;BME280_humidity;BME280_pressure;Samples;Min_cycle;Max_cycle;Signal;HPM_P1;HPM_P2
2021/03/17 00:51:31;;;;;;;7.60;1.58;;;4.20;99.90;;;;;;4881500;29;20068;-86
2021/03/17 00:54:19;;;;;;;6.93;1.35;;;4.20;99.90;;;;;;4869329;29;20062;-87
2021/03/17 01:02:39;;;;;;;8.10;1.40;;;3.80;99.90;;;;;;5205419;23;19934;-87
2021/03/17 01:05:09;;;;;;;6.38;1.25;;;3.90;99.90;;;;;;4873122;29;20037;-88
2021/03/17 01:07:38;;;;;;;6.80;1.23;;;4.00;99.90;;;;;;4872958;29;20053;-89
2021/03/17 01:46:52;;;;;;;5.05;1.55;;;3.70;99.90;;;;;;5101251;23;20036;-88
2021/03/17 02:47:33;;;;;;;10.32;1.83;;;3.70;99.90;;;;;;5929265;23;20162;-79
2021/03/17 02:56:07;;;;;;;11.73;1.95;;;3.70;99.90;;;;;;5687188;23;20044;-88
2021/03/17 03:31:16;;;;;;;8.07;1.75;;;3.90;99.90;;;;;;4960416;23;20215;-87
2021/03/17 03:33:44;;;;;;;7.90;1.65;;;4.00;99.90;;;;;;5257739;23;20042;-88
2021/03/17 03:54:03;;;;;;;6.93;2.15;;;3.70;99.90;;;;;;5510739;23;20032;-88
2021/03/17 03:56:37;;;;;;;4.68;1.77;;;3.70;99.90;;;;;;4962641;29;20066;-87
2021/03/17 04:21:41;;;;;;;5.75;1.80;;;3.70;99.90;;;;;;5648320;23;20047;-88
2021/03/17 04:24:10;;;;;;;9.23;2.10;;;3.70;99.90;;;;;;4946073;29;20040;-88
2021/03/17 04:49:33;;;;;;;7.57;1.65;;;3.50;99.90;;;;;;4940677;29;20044;-85
2021/03/17 04:52:05;;;;;;;9.45;1.83;;;3.60;99.90;;;;;;4926454;29;20040;-89
2021/03/17 05:11:32;;;;;;;11.27;2.38;;;3.50;99.90;;;;;;5260710;23;20056;-88
2021/03/17 05:14:01;;;;;;;7.20;1.83;;;3.40;99.90;;;;;;4945092;29;20056;-88
2021/03/17 05:22:10;;;;;;;11.48;1.70;;;3.30;99.90;;;;;;5531707;23;20024;-88
2021/03/17 06:19:19;;;;;;;6.53;2.45;;;3.60;99.90;;;;;;6002189;23;20027;31
2021/03/17 06:43:04;;;;;;;14.65;5.15;;;3.10;99.90;;;;;;5593030;23;20044;-87
2021/03/17 06:45:49;;;;;;;9.50;5.25;;;3.20;99.90;;;;;;5048135;23;20042;-81
2021/03/17 07:14:42;;;;;;;8.15;3.72;;;3.30;99.90;;;;;;5595007;23;20039;-88
2021/03/17 07:49:27;;;;;;;8.00;2.67;;;3.50;99.90;;;;;;5046672;23;20032;-89
2021/03/17 07:57:52;;;;;;;7.72;2.70;;;3.80;99.90;;;;;;5081830;23;20039;-85
2021/03/17 08:17:59;;;;;;;4.70;2.03;;;4.50;99.90;;;;;;5831090;23;20044;-89
2021/03/17 08:23:45;;;;;;;7.18;2.05;;;4.60;99.90;;;;;;5633589;23;20023;-89
2021/03/17 08:59:22;;;;;;;13.82;3.85;;;4.80;99.90;;;;;;5311149;23;20044;-87
2021/03/17 09:15:21;;;;;;;10.40;3.70;;;5.00;99.90;;;;;;6210682;22;1731025;-87
2021/03/17 09:17:54;;;;;;;7.80;3.75;;;5.70;99.90;;;;;;6253009;23;20012;-87
2021/03/17 09:20:29;;;;;;;14.02;3.47;;;5.80;99.90;;;;;;6229653;23;20067;-86
2021/03/17 09:23:22;;;;;;;9.38;3.80;;;5.80;99.90;;;;;;6228902;23;20003;-88
2021/03/17 09:25:55;;;;;;;9.82;3.65;;;5.80;99.90;;;;;;6180157;23;20011;-83
2021/03/17 09:28:37;;;;;;;14.05;4.40;;;5.70;99.90;;;;;;6195897;23;20080;-88
2021/03/17 09:37:00;;;;;;;8.70;3.92;;;5.60;99.90;;;;;;6155952;22;20201;-86
2021/03/17 09:39:39;;;;;;;11.90;4.18;;;5.60;99.90;;;;;;6150628;23;20069;-92
2021/03/17 09:45:22;;;;;;;10.45;3.92;;;5.70;99.90;;;;;;6247537;22;20063;-89
2021/03/17 09:48:05;;;;;;;9.20;3.83;;;5.70;99.90;;;;;;6226557;23;20080;-89
2021/03/17 09:50:43;;;;;;;9.65;3.50;;;5.90;99.90;;;;;;6163059;23;20016;-84
2021/03/17 10:05:21;;;;;;;12.05;4.90;;;6.10;99.90;;;;;;6205653;23;20025;-89
2021/03/17 10:07:59;;;;;;;11.88;4.03;;;6.20;99.90;;;;;;6171734;23;20056;-90
2021/03/17 10:13:33;;;;;;;11.23;3.67;;;6.40;99.90;;;;;;6208163;22;20012;-96
2021/03/17 10:18:53;;;;;;;9.45;3.75;;;6.40;99.90;;;;;;6158871;23;20009;-96
2021/03/17 10:24:44;;;;;;;10.15;3.63;;;6.20;99.90;;;;;;6204893;23;20025;-96
2021/03/17 10:27:18;;;;;;;14.68;3.75;;;6.10;99.90;;;;;;6164860;23;20053;-96
2021/03/17 10:32:39;;;;;;;9.52;3.10;;;6.20;99.90;;;;;;6163839;23;20068;-96
2021/03/17 10:37:58;;;;;;;9.88;3.70;;;6.20;99.90;;;;;;6160352;23;20013;-95
2021/03/17 10:40:33;;;;;;;9.85;4.63;;;6.40;99.90;;;;;;6148951;23;20021;-96
2021/03/17 10:43:21;;;;;;;8.52;3.88;;;6.70;99.90;;;;;;6151311;23;20013;-96
2021/03/17 10:46:24;;;;;;;9.18;4.20;;;6.90;99.90;;;;;;6169462;23;20294;-96
2021/03/17 10:49:07;;;;;;;11.32;3.88;;;6.90;99.90;;;;;;6173987;23;20467;-96
2021/03/17 10:51:39;;;;;;;12.10;3.90;;;6.80;99.90;;;;;;6152909;23;20024;-96
2021/03/17 10:54:12;;;;;;;10.25;4.00;;;6.70;99.90;;;;;;6156346;23;20013;-96
2021/03/17 10:56:51;;;;;;;10.63;3.67;;;6.60;99.90;;;;;;6161145;23;20052;-96
2021/03/17 10:59:35;;;;;;;9.80;3.75;;;6.60;99.90;;;;;;6180245;23;20013;-96
2021/03/17 11:02:33;;;;;;;12.55;4.63;;;6.50;99.90;;;;;;6156697;23;20021;-96
2021/03/17 11:05:16;;;;;;;11.05;4.18;;;6.60;99.90;;;;;;6142945;23;20013;-93
2021/03/17 11:08:38;;;;;;;13.95;4.80;;;6.60;99.90;;;;;;6154651;23;20020;-95
2021/03/17 11:11:06;;;;;;;15.02;5.18;;;6.70;99.90;;;;;;6125122;23;20025;-96
2021/03/17 11:13:43;;;;;;;;;;;6.60;99.90;;;;;;6180243;23;20031;-95
2021/03/17 11:26:25;;;;;;;11.43;5.20;;;7.00;99.90;;;;;;6205326;23;20013;-96
2021/03/17 11:28:58;;;;;;;14.00;5.82;;;7.40;99.90;;;;;;6124991;23;20032;-96
2021/03/17 11:31:46;;;;;;;11.73;5.20;;;7.70;99.90;;;;;;6145299;23;20240;31
2021/03/17 11:38:46;;;;;;;18.75;5.43;;;7.90;99.90;;;;;;6221672;23;20050;-96
2021/03/17 11:41:22;;;;;;;14.27;4.70;;;8.50;99.90;;;;;;6156759;23;20032;-94
2021/03/17 11:44:25;;;;;;;13.30;4.55;;;8.70;99.90;;;;;;6178668;23;20001;-96
2021/03/17 11:53:13;;;;;;;21.65;5.18;;;8.60;99.90;;;;;;6145919;23;20021;-96
2021/03/17 11:55:42;;;;;;;23.63;5.45;;;8.60;99.90;;;;;;6153775;23;20032;-96
2021/03/17 11:58:12;;;;;;;13.15;5.25;;;8.50;99.90;;;;;;6155681;23;20021;-94
2021/03/17 12:00:47;;;;;;;16.30;5.72;;;8.30;99.90;;;;;;6170207;23;20025;-95
2021/03/17 12:03:20;;;;;;;37.05;6.47;;;8.10;99.90;;;;;;6175951;23;20017;-96
2021/03/17 12:05:50;;;;;;;12.10;4.65;;;7.90;99.90;;;;;;6181631;23;20013;-96
2021/03/17 12:23:41;;;;;;;14.82;4.40;;;7.40;99.90;;;;;;6183925;23;20021;-96
2021/03/17 12:26:14;;;;;;;28.45;5.72;;;7.40;99.90;;;;;;6145535;23;20021;-95
2021/03/17 12:28:48;;;;;;;10.88;4.95;;;7.60;99.90;;;;;;6144692;23;20035;-95
2021/03/17 12:31:22;;;;;;;16.95;4.97;;;7.90;99.90;;;;;;6170325;23;20013;-94
2021/03/17 12:33:49;;;;;;;23.83;4.88;;;8.50;99.90;;;;;;6143214;23;20232;-96
2021/03/17 12:36:19;;;;;;;9.55;3.90;;;9.20;98.90;;;;;;6143465;23;20027;-94
2021/03/17 12:38:48;;;;;;;12.85;4.10;;;10.30;94.70;;;;;;6142591;23;20031;-92
2021/03/17 12:41:19;;;;;;;13.13;4.07;;;11.10;90.10;;;;;;6144259;23;20020;-91
2021/03/17 12:43:51;;;;;;;24.02;4.30;;;11.70;81.80;;;;;;6142930;23;20023;-89
2021/03/17 12:46:21;;;;;;;17.38;4.00;;;11.90;75.40;;;;;;6143071;23;20031;-87
2021/03/17 12:48:52;;;;;;;11.63;3.58;;;12.00;73.30;;;;;;6142144;23;20031;-88
2021/03/17 12:51:24;;;;;;;14.68;3.80;;;12.90;72.20;;;;;;6169459;23;20035;-93
2021/03/17 12:53:57;;;;;;;13.40;3.67;;;13.30;65.10;;;;;;6173548;23;20016;-93
2021/03/17 12:56:28;;;;;;;9.38;3.47;;;13.30;63.90;;;;;;6158266;23;20020;-92
2021/03/17 12:58:55;;;;;;;12.50;3.92;;;12.80;65.10;;;;;;6161730;23;20064;-92
2021/03/17 13:01:23;;;;;;;13.63;4.65;;;12.40;67.90;;;;;;6160209;23;20031;-92
2021/03/17 13:03:50;;;;;;;22.70;4.50;;;12.40;68.30;;;;;;6210524;23;20072;-93
2021/03/17 13:06:18;;;;;;;10.57;3.45;;;12.20;67.80;;;;;;6183954;23;20017;-92
2021/03/17 13:08:46;;;;;;;14.25;4.18;;;11.90;68.20;;;;;;6135582;23;20017;-93
2021/03/17 13:11:15;;;;;;;8.20;3.17;;;11.50;69.60;;;;;;6159532;23;20025;-95
2021/03/17 13:13:43;;;;;;;11.38;3.60;;;11.00;71.80;;;;;;6149432;23;20099;-94
2021/03/17 13:16:13;;;;;;;10.90;3.00;;;10.70;73.00;;;;;;6147381;23;20031;-94
2021/03/17 13:18:41;;;;;;;15.50;3.08;;;10.40;76.20;;;;;;6121335;23;20021;-94
2021/03/17 13:21:09;;;;;;;7.95;2.60;;;10.00;80.00;;;;;;6151671;23;20027;-93
2021/03/17 13:23:41;;;;;;;9.00;3.03;;;9.80;80.40;;;;;;6176181;23;20047;-95
2021/03/17 13:26:14;;;;;;;10.35;2.40;;;9.70;82.40;;;;;;6164583;23;20017;-96
2021/03/17 13:28:46;;;;;;;;;;;9.60;82.70;;;;;;6151797;23;20031;-96
2021/03/17 13:31:15;;;;;;;18.92;4.13;;;9.40;84.40;;;;;;6150772;23;19916;-95
2021/03/17 13:33:43;;;;;;;8.27;2.65;;;9.40;86.90;;;;;;6148709;23;20017;-96
2021/03/17 13:36:14;;;;;;;13.00;2.72;;;9.40;85.40;;;;;;6151586;23;20021;-95
2021/03/17 13:38:51;;;;;;;10.95;2.88;;;9.50;84.70;;;;;;6173961;23;20021;-95
2021/03/17 13:41:28;;;;;;;13.20;2.88;;;9.70;86.00;;;;;;6157338;23;20020;-95
2021/03/17 13:43:56;;;;;;;12.07;3.40;;;10.00;84.20;;;;;;6156401;23;20071;-95
2021/03/17 13:46:32;;;;;;;13.98;3.15;;;10.20;81.30;;;;;;6155376;23;20021;-94
2021/03/17 13:49:11;;;;;;;15.32;3.20;;;10.30;78.90;;;;;;6158480;23;20069;-94
2021/03/17 13:51:43;;;;;;;12.88;5.03;;;10.40;77.40;;;;;;6183799;23;20019;-93
2021/03/17 13:54:14;;;;;;;31.77;4.00;;;10.50;77.70;;;;;;6161974;23;20068;-93
2021/03/17 13:56:47;;;;;;;13.73;3.42;;;11.10;75.10;;;;;;6160561;23;20032;-89
2021/03/17 13:59:20;;;;;;;14.82;2.88;;;12.00;70.60;;;;;;6181477;23;20027;-90
2021/03/17 14:01:49;;;;;;;12.18;3.13;;;12.50;68.80;;;;;;6179384;23;20021;-91
2021/03/17 14:04:17;;;;;;;18.50;3.55;;;13.10;66.20;;;;;;6132000;23;20017;-91
2021/03/17 14:06:48;;;;;;;11.85;2.80;;;13.70;62.90;;;;;;6181337;23;20027;-92
2021/03/17 14:09:25;;;;;;;17.30;3.38;;;13.80;62.10;;;;;;6158336;23;20035;-91
2021/03/17 14:12:05;;;;;;;6.80;2.72;;;13.80;60.10;;;;;;6157159;23;20093;-93
2021/03/17 14:14:33;;;;;;;10.25;2.42;;;13.50;61.50;;;;;;6155952;23;20017;-92
2021/03/17 14:17:57;;;;;;;8.88;2.60;;;13.10;62.90;;;;;;6081972;23;20027;-93
2021/03/17 14:20:30;;;;;;;8.43;2.50;;;12.70;63.30;;;;;;6056651;23;20457;-93
2021/03/17 14:23:06;;;;;;;24.98;3.17;;;12.00;65.60;;;;;;6054748;23;20027;-90
2021/03/17 14:25:52;;;;;;;11.15;2.65;;;12.00;66.80;;;;;;6083801;23;20025;-91
2021/03/17 14:28:40;;;;;;;12.45;2.55;;;12.90;66.10;;;;;;6082606;23;20027;-91
2021/03/17 14:31:12;;;;;;;6.50;2.75;;;13.70;60.50;;;;;;6054766;23;20045;-92
2021/03/17 14:33:44;;;;;;;13.48;3.83;;;13.40;60.80;;;;;;6079138;23;20018;-92
2021/03/17 14:36:12;;;;;;;10.70;2.33;;;12.60;61.10;;;;;;6027987;23;20033;-92
2021/03/17 14:38:43;;;;;;;8.30;2.83;;;12.20;64.90;;;;;;6004728;23;20296;-91
2021/03/17 14:41:17;;;;;;;12.73;3.03;;;11.90;65.40;;;;;;6029651;23;20254;-91
2021/03/17 14:43:49;;;;;;;14.25;2.85;;;11.70;66.40;;;;;;6053730;23;20066;-94
2021/03/17 14:46:22;;;;;;;11.98;2.95;;;11.50;66.70;;;;;;6077614;23;20449;-93
2021/03/17 14:48:58;;;;;;;10.38;3.22;;;11.10;67.60;;;;;;6052430;23;20026;-92
2021/03/17 14:51:29;;;;;;;12.45;2.75;;;10.60;68.70;;;;;;6079382;23;20066;-93
2021/03/17 14:54:06;;;;;;;16.35;3.67;;;9.90;70.80;;;;;;6072445;23;20027;-94
2021/03/17 14:56:41;;;;;;;10.20;2.97;;;9.30;75.50;;;;;;6146985;23;20023;-93
2021/03/17 14:59:18;;;;;;;10.85;4.05;;;9.40;77.30;;;;;;6149236;23;20120;-94
2021/03/17 15:01:51;;;;;;;11.52;2.97;;;9.50;76.70;;;;;;6148067;23;20316;-95
2021/03/17 15:04:18;;;;;;;13.18;3.63;;;9.50;77.10;;;;;;6145502;23;20023;-93
2021/03/17 15:06:53;;;;;;;11.95;2.50;;;9.50;76.20;;;;;;6174763;23;20031;-93
2021/03/17 15:09:22;;;;;;;9.65;2.78;;;9.40;75.50;;;;;;6151915;23;20423;-93
2021/03/17 15:11:51;;;;;;;17.27;3.75;;;9.30;74.90;;;;;;6149931;23;20021;-94
2021/03/17 15:14:26;;;;;;;10.30;2.70;;;9.10;75.30;;;;;;6200751;23;20017;-94
2021/03/17 15:16:55;;;;;;;12.43;2.60;;;8.90;76.70;;;;;;6127888;23;20031;-92
2021/03/17 15:19:26;;;;;;;10.57;3.50;;;8.70;78.90;;;;;;6157760;23;20025;-89
2021/03/17 15:21:59;;;;;;;10.07;2.72;;;8.50;80.80;;;;;;6157456;23;20021;-91
2021/03/17 15:24:36;;;;;;;11.20;3.08;;;8.30;82.80;;;;;;6157662;23;20025;-90
2021/03/17 15:27:06;;;;;;;15.82;3.40;;;8.00;86.20;;;;;;6157904;23;20017;-91
2021/03/17 15:29:38;;;;;;;9.02;3.05;;;7.80;88.40;;;;;;6153954;23;20020;-90
2021/03/17 15:32:11;;;;;;;10.20;2.95;;;7.60;90.30;;;;;;6154516;23;20004;-93
2021/03/17 17:04:04;;;;;;;7.65;2.85;;;6.20;99.90;;;;;;6149182;23;20065;-92
2021/03/17 17:31:51;;;;;;;7.47;2.72;;;5.30;99.90;;;;;;6046475;23;20357;-96
2021/03/17 17:34:20;;;;;;;5.30;2.55;;;5.30;99.90;;;;;;6094384;23;20236;-96
2021/03/17 17:36:52;;;;;;;5.35;2.40;;;5.30;99.90;;;;;;6139860;23;20020;-96
2021/03/17 17:39:40;;;;;;;5.28;2.17;;;5.30;99.90;;;;;;6179986;23;20020;-96
2021/03/17 17:42:13;;;;;;;8.25;2.58;;;5.50;99.90;;;;;;6178943;23;20021;-96
2021/03/17 17:44:47;;;;;;;5.78;2.20;;;5.60;99.90;;;;;;6179474;23;20021;-96
2021/03/17 17:47:24;;;;;;;9.15;2.28;;;5.70;99.90;;;;;;6179797;23;20035;-95
2021/03/17 17:50:08;;;;;;;7.45;2.72;;;5.50;99.90;;;;;;6204576;23;20024;-95
2021/03/17 17:52:39;;;;;;;6.60;2.63;;;5.50;99.90;;;;;;6176241;23;20028;-94
2021/03/17 17:55:20;;;;;;;5.60;2.42;;;5.60;99.90;;;;;;6177358;23;20031;-93
2021/03/17 17:57:55;;;;;;;5.05;2.10;;;5.60;99.90;;;;;;6201110;23;20031;-94
2021/03/17 18:00:28;;;;;;;8.50;2.05;;;5.50;99.90;;;;;;6196658;23;20034;-94
2021/03/17 18:03:22;;;;;;;5.75;1.80;;;5.30;99.90;;;;;;6171300;23;20020;-93
2021/03/17 18:06:10;;;;;;;5.30;1.50;;;5.20;99.90;;;;;;6199091;23;20016;-94
2021/03/17 18:08:43;;;;;;;3.85;1.90;;;4.90;99.90;;;;;;6189578;23;20025;-94
2021/03/17 18:11:12;;;;;;;3.13;1.45;;;4.70;99.90;;;;;;6171600;23;20027;-95
2021/03/17 18:13:42;;;;;;;5.70;2.00;;;4.70;99.90;;;;;;6171600;23;20017;-92
2021/03/17 18:16:15;;;;;;;3.17;1.67;;;4.50;99.90;;;;;;6171170;23;20040;-92
2021/03/17 18:18:45;;;;;;;3.58;1.65;;;4.60;99.90;;;;;;6170160;23;20025;-90
2021/03/17 18:21:19;;;;;;;5.55;1.55;;;4.60;99.90;;;;;;6201538;23;20028;-90
2021/03/17 18:23:50;;;;;;;3.55;1.55;;;4.70;99.90;;;;;;6187374;23;20013;-95
2021/03/17 18:26:20;;;;;;;6.30;1.73;;;4.60;99.90;;;;;;6202333;23;20290;-95
2021/03/17 18:28:52;;;;;;;4.93;1.73;;;4.70;99.90;;;;;;6171485;23;20316;-93
2021/03/17 18:31:20;;;;;;;4.72;1.42;;;4.50;99.90;;;;;;6171615;23;20024;-93
2021/03/17 18:33:51;;;;;;;2.58;1.35;;;4.40;99.90;;;;;;6174957;23;20030;-95
2021/03/17 18:36:18;;;;;;;6.50;1.52;;;4.40;99.90;;;;;;6182565;23;20012;-92
2021/03/17 18:38:48;;;;;;;5.68;2.60;;;4.30;99.90;;;;;;6186686;23;20027;-90
2021/03/17 18:41:16;;;;;;;5.88;1.73;;;4.20;99.90;;;;;;6184350;23;20025;-93
2021/03/17 18:43:45;;;;;;;3.38;1.70;;;4.00;99.90;;;;;;6204584;23;20027;-91
2021/03/17 18:46:24;;;;;;;5.18;1.85;;;3.90;99.90;;;;;;6202236;23;20412;-94
2021/03/17 18:48:53;;;;;;;10.18;2.35;;;3.90;99.90;;;;;;6183846;23;20026;-96
2021/03/17 18:51:26;;;;;;;9.73;2.65;;;3.80;99.90;;;;;;6179063;23;20031;-92
2021/03/17 18:54:14;;;;;;;5.40;1.95;;;3.90;99.90;;;;;;6198376;23;20033;-89
2021/03/17 18:56:42;;;;;;;6.03;2.10;;;4.00;99.90;;;;;;6179005;23;20023;-92
2021/03/17 18:59:11;;;;;;;4.93;1.88;;;3.90;99.90;;;;;;6180139;23;20027;-94
2021/03/17 19:06:43;;;;;;;5.72;2.63;;;4.00;99.90;;;;;;6227696;23;20023;-95
2021/03/17 19:09:39;;;;;;;10.32;4.20;;;4.10;99.90;;;;;;6203824;23;20040;-95
2021/03/17 19:12:21;;;;;;;4.13;2.10;;;4.10;99.90;;;;;;6200347;23;20035;-95
2021/03/17 19:18:02;;;;;;;4.15;2.08;;;4.40;99.90;;;;;;6230336;23;20020;-94
2021/03/17 19:21:07;;;;;;;5.38;2.20;;;4.30;99.90;;;;;;6246716;23;20024;-92
2021/03/17 19:23:39;;;;;;;4.28;2.10;;;4.10;99.90;;;;;;6187056;23;20020;-91
2021/03/17 19:26:12;;;;;;;7.68;2.78;;;3.80;99.90;;;;;;6208185;23;20021;-92
2021/03/17 19:31:41;;;;;;;6.05;2.97;;;3.60;99.90;;;;;;6215362;23;19918;-91
2021/03/17 19:34:16;;;;;;;5.57;2.42;;;3.60;99.90;;;;;;6191041;23;20011;-93
2021/03/17 19:36:48;;;;;;;4.75;2.25;;;3.70;99.90;;;;;;6213558;23;20027;-92
2021/03/17 19:39:30;;;;;;;5.78;2.58;;;3.70;99.90;;;;;;6172516;23;20000;-93
2021/03/17 19:42:02;;;;;;;5.13;2.55;;;3.80;99.90;;;;;;6238427;23;20024;-93
2021/03/17 19:44:55;;;;;;;5.88;2.40;;;3.90;99.90;;;;;;6209485;23;20035;-92
2021/03/17 19:47:24;;;;;;;4.82;2.30;;;3.90;99.90;;;;;;6203223;23;20020;-93
2021/03/17 19:50:39;;;;;;;6.47;2.33;;;3.80;99.90;;;;;;6207401;23;20060;-91
2021/03/17 19:53:49;;;;;;;3.25;1.85;;;3.80;99.90;;;;;;6230882;23;20046;-91
2021/03/17 19:56:43;;;;;;;3.88;1.90;;;3.80;99.90;;;;;;6190602;23;20020;-89
2021/03/17 19:59:35;;;;;;;5.13;2.20;;;3.90;99.90;;;;;;6231058;23;20016;-91
2021/03/17 20:02:24;;;;;;;4.22;2.17;;;3.80;99.90;;;;;;6209285;23;20016;-90
2021/03/17 20:05:02;;;;;;;5.18;2.00;;;3.70;99.90;;;;;;6182865;23;20020;-91
2021/03/17 20:07:34;;;;;;;3.50;1.73;;;3.70;99.90;;;;;;6186863;23;20035;-89
2021/03/17 20:10:04;;;;;;;4.68;2.13;;;3.60;99.90;;;;;;6188023;23;20021;-87
2021/03/17 20:12:51;;;;;;;4.22;2.20;;;3.50;99.90;;;;;;6209644;23;20020;-90
2021/03/17 20:16:04;;;;;;;4.03;1.90;;;3.50;99.90;;;;;;6141125;23;20307;-88
2021/03/17 20:18:39;;;;;;;6.10;2.20;;;3.40;99.90;;;;;;6091008;23;20030;-90
2021/03/17 20:21:19;;;;;;;6.85;2.67;;;3.30;99.90;;;;;;6114410;23;20022;-92
2021/03/17 20:23:52;;;;;;;5.90;2.65;;;3.20;99.90;;;;;;6111534;23;20022;-92
2021/03/17 20:26:30;;;;;;;4.82;2.47;;;3.10;99.90;;;;;;6112799;23;20022;-90
2021/03/17 20:29:17;;;;;;;4.50;2.58;;;3.10;99.90;;;;;;6137012;23;20022;-91
2021/03/17 20:32:09;;;;;;;5.22;2.58;;;3.00;99.90;;;;;;6091062;23;20017;-93
2021/03/17 20:34:49;;;;;;;5.32;2.97;;;2.90;99.90;;;;;;6119380;23;20061;-92
2021/03/17 20:37:27;;;;;;;5.97;2.90;;;2.70;99.90;;;;;;6146372;23;20014;-90
2021/03/17 20:39:57;;;;;;;4.80;2.45;;;2.70;99.90;;;;;;6087954;23;20032;-93
2021/03/17 20:46:13;;;;;;;5.20;2.97;;;2.50;99.90;;;;;;6113012;23;20477;-92
2021/03/17 20:48:49;;;;;;;5.78;2.65;;;2.40;99.90;;;;;;6104448;23;20022;-92
2021/03/17 20:51:30;;;;;;;8.98;3.83;;;2.40;99.90;;;;;;6092482;23;20329;-90
2021/03/17 20:54:14;;;;;;;8.02;3.50;;;2.30;99.90;;;;;;6165983;23;20435;-91
2021/03/17 20:56:59;;;;;;;5.97;3.03;;;2.30;99.90;;;;;;6171501;23;20413;-90
2021/03/17 20:59:35;;;;;;;8.40;3.58;;;2.30;99.90;;;;;;6194772;23;20024;-90
2021/03/17 21:02:26;;;;;;;8.40;3.03;;;2.20;99.90;;;;;;6171141;23;20025;-93
2021/03/17 21:04:59;;;;;;;6.97;3.22;;;2.30;99.90;;;;;;6144038;23;20028;-91
2021/03/17 21:07:31;;;;;;;8.20;3.67;;;2.30;99.90;;;;;;6169798;23;20020;-91
2021/03/17 21:10:13;;;;;;;9.63;3.47;;;2.30;99.90;;;;;;6173541;23;20328;-92
2021/03/17 21:12:59;;;;;;;6.95;3.65;;;2.20;99.90;;;;;;6220098;23;20021;-93
2021/03/17 21:15:58;;;;;;;6.68;3.33;;;2.20;99.90;;;;;;6157691;23;20021;-92
2021/03/17 21:18:32;;;;;;;9.02;4.20;;;2.20;99.90;;;;;;6171231;23;20016;-91
2021/03/17 21:21:07;;;;;;;8.95;4.57;;;2.20;99.90;;;;;;6168754;23;20016;-87
2021/03/17 21:24:03;;;;;;;12.90;5.17;;;2.20;99.90;;;;;;6170819;23;20021;-91
2021/03/17 21:26:34;;;;;;;16.45;6.85;;;2.20;99.90;;;;;;6168879;23;20325;-93
2021/03/17 21:29:07;;;;;;;14.27;6.38;;;2.30;99.90;;;;;;6169727;23;20454;-91
2021/03/17 21:32:17;;;;;;;18.50;7.45;;;2.40;99.90;;;;;;6193499;23;20016;-91
2021/03/17 21:35:18;;;;;;;16.50;7.15;;;2.50;99.90;;;;;;6198635;23;20423;-92
2021/03/17 21:38:15;;;;;;;11.65;6.53;;;2.50;99.90;;;;;;6190393;23;20017;-92
2021/03/17 21:40:58;;;;;;;9.57;5.30;;;2.40;99.90;;;;;;6169323;23;20443;-90
2021/03/17 21:43:34;;;;;;;10.25;5.45;;;2.30;99.90;;;;;;6193159;23;20020;-92
2021/03/17 21:46:29;;;;;;;10.27;5.90;;;2.20;99.90;;;;;;6169611;23;20024;-90
2021/03/17 21:49:02;;;;;;;10.50;5.80;;;2.10;99.90;;;;;;6192241;23;20316;-90
2021/03/17 21:51:35;;;;;;;11.80;5.75;;;2.10;99.90;;;;;;6173403;23;20017;-88
2021/03/17 21:54:09;;;;;;;11.00;5.40;;;2.20;99.90;;;;;;6169284;23;20039;-94
2021/03/17 21:56:40;;;;;;;10.10;5.63;;;2.30;99.90;;;;;;6170822;23;20013;-90
2021/03/17 21:59:13;;;;;;;12.00;5.10;;;2.40;99.90;;;;;;6147145;23;20031;-92
2021/03/17 22:01:43;;;;;;;9.05;5.32;;;2.50;99.90;;;;;;6172271;23;20020;-95
2021/03/17 22:04:16;;;;;;;12.20;5.93;;;2.60;99.90;;;;;;6147460;23;20020;-90
2021/03/17 22:06:46;;;;;;;9.50;4.85;;;2.70;99.90;;;;;;6195644;23;20012;-90
2021/03/17 22:09:15;;;;;;;;;;;2.70;99.90;;;;;;6169122;23;20027;-87
2021/03/17 22:11:44;;;;;;;7.22;4.03;;;2.80;99.90;;;;;;6193416;23;19916;-88
2021/03/17 22:14:15;;;;;;;7.00;3.60;;;2.90;99.90;;;;;;6171332;23;20017;-90
2021/03/17 22:16:46;;;;;;;7.13;3.67;;;2.80;99.90;;;;;;6193209;23;20347;-93
2021/03/17 22:19:23;;;;;;;6.18;3.33;;;2.80;99.90;;;;;;6197456;23;20322;-90
2021/03/17 22:22:00;;;;;;;6.85;3.67;;;2.70;99.90;;;;;;6175339;23;20031;-94
2021/03/17 22:24:41;;;;;;;6.25;3.47;;;2.60;99.90;;;;;;6226336;23;20035;-94
2021/03/17 22:27:15;;;;;;;6.03;3.22;;;2.60;99.90;;;;;;6150042;23;20016;-93
2021/03/17 22:29:44;;;;;;;6.65;3.60;;;2.60;99.90;;;;;;6197504;23;20032;-90
2021/03/17 22:32:16;;;;;;;8.77;3.58;;;2.60;99.90;;;;;;6196501;23;20025;-93
2021/03/17 22:34:51;;;;;;;7.00;3.17;;;2.60;99.90;;;;;;6172629;23;20017;-92
2021/03/17 22:37:20;;;;;;;7.17;3.87;;;2.50;99.90;;;;;;6148266;23;20012;-93
2021/03/17 22:39:48;;;;;;;9.73;3.13;;;2.50;99.90;;;;;;6169915;23;20021;-92
2021/03/17 22:42:17;;;;;;;10.13;4.10;;;2.70;99.90;;;;;;6170059;23;20024;-93
2021/03/17 22:44:45;;;;;;;5.78;3.13;;;2.70;99.90;;;;;;6169728;23;20031;-92
2021/03/17 22:47:15;;;;;;;6.25;3.42;;;2.80;99.90;;;;;;6171245;23;20023;-93
2021/03/17 22:49:44;;;;;;;7.68;3.53;;;2.90;99.90;;;;;;6172776;23;20017;-93
2021/03/17 22:52:12;;;;;;;6.60;2.97;;;2.90;99.90;;;;;;6196119;23;20020;-92
2021/03/17 22:54:41;;;;;;;5.60;3.22;;;3.10;99.90;;;;;;6172778;23;20024;-89
2021/03/17 22:57:11;;;;;;;11.93;3.30;;;3.10;99.90;;;;;;6174013;23;20027;-92
2021/03/17 22:59:41;;;;;;;6.07;3.20;;;3.10;99.90;;;;;;6172363;23;20035;-89
2021/03/17 23:02:09;;;;;;;7.32;3.05;;;2.90;99.90;;;;;;6197622;23;20446;-93
2021/03/17 23:04:36;;;;;;;10.15;3.35;;;2.80;99.90;;;;;;6182230;23;20021;-93
2021/03/17 23:07:04;;;;;;;7.05;3.40;;;2.70;99.90;;;;;;6191457;23;20012;-93
2021/03/17 23:09:38;;;;;;;6.15;3.33;;;2.70;99.90;;;;;;6190633;23;20027;-93
2021/03/17 23:12:06;;;;;;;6.28;2.90;;;2.60;99.90;;;;;;6209898;23;20020;-93
2021/03/17 23:14:34;;;;;;;5.50;3.17;;;2.60;99.90;;;;;;6176348;23;20035;-92
2021/03/17 23:17:04;;;;;;;6.88;3.20;;;2.50;99.90;;;;;;6169574;23;20024;-93
2021/03/17 23:19:32;;;;;;;7.28;3.58;;;2.50;99.90;;;;;;6169499;23;20031;-93
2021/03/17 23:22:01;;;;;;;6.32;3.15;;;2.40;99.90;;;;;;6171142;23;20027;-92
2021/03/17 23:24:32;;;;;;;;;;;2.30;99.90;;;;;;6175918;23;20428;-93
2021/03/17 23:27:07;;;;;;;5.78;3.20;;;2.30;99.90;;;;;;6186338;23;19916;-92
2021/03/17 23:29:47;;;;;;;7.28;3.65;;;2.30;99.90;;;;;;6186867;23;20020;-92
2021/03/17 23:32:14;;;;;;;9.00;3.70;;;2.20;99.90;;;;;;6183546;23;20021;-91
2021/03/17 23:34:49;;;;;;;7.88;3.30;;;2.20;99.90;;;;;;6171997;23;20024;-92
2021/03/17 23:37:20;;;;;;;9.38;4.35;;;2.20;99.90;;;;;;6195651;23;20027;-94
2021/03/17 23:39:50;;;;;;;6.30;3.35;;;2.10;99.90;;;;;;6216642;23;20035;-95
2021/03/17 23:42:24;;;;;;;7.65;3.38;;;2.00;99.90;;;;;;6214088;23;20099;-94
2021/03/17 23:44:58;;;;;;;5.57;3.55;;;2.00;99.90;;;;;;6185987;23;20016;-95
2021/03/17 23:47:28;;;;;;;6.80;3.53;;;1.90;99.90;;;;;;6216261;23;20020;-94
2021/03/17 23:49:56;;;;;;;7.40;3.77;;;1.80;99.90;;;;;;6187431;23;20020;-94
2021/03/17 23:52:23;;;;;;;8.23;3.63;;;1.80;99.90;;;;;;6194260;23;20060;-94
2021/03/17 23:54:51;;;;;;;7.63;3.67;;;1.70;99.90;;;;;;6186821;23;20065;-95
2021/03/17 23:57:20;;;;;;;9.98;3.50;;;1.70;99.90;;;;;;6210781;23;20011;-94
2021/03/17 23:59:48;;;;;;;6.00;3.60;;;1.60;99.90;;;;;;6188044;23;20068;-92
